KDYA

Demopolis Regional Airport

Demopolis, Alabama, USA
METAR KDYA 181435Z AUTO 32003KT 10SM M07/M10 A3060 RMK AO2 T10691105
Observed Flight Rules
Jan-18 @ 14:35 UTC (59 minutes ago)
Wind Visibility
320° at 3 knots 10 miles
Temperatures Readings
Current -7°C / 19°F
Dewpoint -11°C / 12°F
Humidity 73%
Altimeter 30.6" Hg
Pressure 1036 hPa
Elevation 34
METAR KDYA 181435Z AUTO 32003KT 10SM M07/M10 A3060 RMK AO2 T10691105
Observed Flight Rules
Jan-18 @ 14:35 UTC
(59 minutes ago)
Wind Visibility
320° at 3 knots 10 miles
Temperature Dewpoint
-7°C / 19°F -11°C / 12°F
Humidity Altimeter Pressure
73% 30.6" Hg 1036 hPa